sensor_id;sensor_type;location;lat;lon;timestamp;P1;durP1;ratioP1;P2;durP2;ratioP2
50429;SDS011;36359;41.556;-8.418;2022-09-03T00:13:36;7.75;;;3.13;;
50429;SDS011;36359;41.556;-8.418;2022-09-03T00:16:08;9.80;;;3.47;;
50429;SDS011;36359;41.556;-8.418;2022-09-03T00:18:45;9.25;;;3.15;;
50429;SDS011;36359;41.556;-8.418;2022-09-03T00:21:16;7.03;;;3.15;;
50429;SDS011;36359;41.556;-8.418;2022-09-03T00:23:50;5.30;;;2.00;;
50429;SDS011;36359;41.556;-8.418;2022-09-03T00:26:22;8.68;;;3.00;;
50429;SDS011;36359;41.556;-8.418;2022-09-03T00:31:20;4.78;;;2.40;;
50429;SDS011;36359;41.556;-8.418;2022-09-03T00:34:05;9.73;;;3.08;;
50429;SDS011;36359;41.556;-8.418;2022-09-03T00:36:37;8.40;;;2.78;;
50429;SDS011;36359;41.556;-8.418;2022-09-03T00:47:28;9.00;;;2.58;;
50429;SDS011;36359;41.556;-8.418;2022-09-03T00:50:20;12.15;;;3.60;;
50429;SDS011;36359;41.556;-8.418;2022-09-03T00:55:51;6.47;;;2.60;;
50429;SDS011;36359;41.556;-8.418;2022-09-03T00:58:29;19.23;;;5.05;;
50429;SDS011;36359;41.556;-8.418;2022-09-03T01:01:01;17.83;;;4.35;;
50429;SDS011;36359;41.556;-8.418;2022-09-03T01:03:48;11.40;;;3.80;;
50429;SDS011;36359;41.556;-8.418;2022-09-03T01:11:58;8.25;;;3.17;;
50429;SDS011;36359;41.556;-8.418;2022-09-03T01:17:50;13.25;;;4.38;;
50429;SDS011;36359;41.556;-8.418;2022-09-03T01:30:47;6.50;;;2.83;;
50429;SDS011;36359;41.556;-8.418;2022-09-03T01:33:27;13.45;;;7.28;;
50429;SDS011;36359;41.556;-8.418;2022-09-03T01:38:49;11.88;;;6.15;;
50429;SDS011;36359;41.556;-8.418;2022-09-03T01:44:18;11.15;;;5.68;;
50429;SDS011;36359;41.556;-8.418;2022-09-03T01:46:48;5.68;;;3.15;;
50429;SDS011;36359;41.556;-8.418;2022-09-03T01:50:03;11.13;;;4.53;;
50429;SDS011;36359;41.556;-8.418;2022-09-03T01:58:29;11.93;;;4.30;;
50429;SDS011;36359;41.556;-8.418;2022-09-03T02:01:09;8.60;;;4.35;;
50429;SDS011;36359;41.556;-8.418;2022-09-03T02:03:41;5.70;;;2.72;;
50429;SDS011;36359;41.556;-8.418;2022-09-03T02:06:09;9.93;;;4.13;;
50429;SDS011;36359;41.556;-8.418;2022-09-03T02:08:36;7.53;;;2.78;;
50429;SDS011;36359;41.556;-8.418;2022-09-03T02:11:04;9.98;;;3.47;;
50429;SDS011;36359;41.556;-8.418;2022-09-03T02:13:46;13.02;;;4.28;;
50429;SDS011;36359;41.556;-8.418;2022-09-03T02:16:26;9.93;;;4.25;;
50429;SDS011;36359;41.556;-8.418;2022-09-03T02:19:00;8.50;;;3.80;;
50429;SDS011;36359;41.556;-8.418;2022-09-03T02:21:33;8.13;;;3.88;;
50429;SDS011;36359;41.556;-8.418;2022-09-03T02:24:02;13.48;;;4.15;;
50429;SDS011;36359;41.556;-8.418;2022-09-03T02:26:29;12.18;;;4.40;;
50429;SDS011;36359;41.556;-8.418;2022-09-03T02:28:55;10.20;;;3.95;;
50429;SDS011;36359;41.556;-8.418;2022-09-03T02:31:22;12.07;;;4.05;;
50429;SDS011;36359;41.556;-8.418;2022-09-03T02:33:48;7.80;;;3.28;;
50429;SDS011;36359;41.556;-8.418;2022-09-03T02:36:19;10.93;;;4.28;;
50429;SDS011;36359;41.556;-8.418;2022-09-03T02:38:50;7.60;;;3.47;;
50429;SDS011;36359;41.556;-8.418;2022-09-03T02:41:16;6.40;;;3.08;;
50429;SDS011;36359;41.556;-8.418;2022-09-03T02:46:43;10.05;;;3.50;;
50429;SDS011;36359;41.556;-8.418;2022-09-03T02:49:14;7.28;;;3.00;;
50429;SDS011;36359;41.556;-8.418;2022-09-03T02:51:41;5.72;;;3.05;;
50429;SDS011;36359;41.556;-8.418;2022-09-03T02:54:08;5.47;;;2.75;;
50429;SDS011;36359;41.556;-8.418;2022-09-03T02:56:36;9.05;;;3.10;;
50429;SDS011;36359;41.556;-8.418;2022-09-03T02:59:02;6.95;;;2.95;;
50429;SDS011;36359;41.556;-8.418;2022-09-03T03:01:29;7.53;;;3.25;;
50429;SDS011;36359;41.556;-8.418;2022-09-03T03:03:55;8.73;;;3.30;;
50429;SDS011;36359;41.556;-8.418;2022-09-03T03:06:21;7.55;;;2.97;;
50429;SDS011;36359;41.556;-8.418;2022-09-03T03:08:48;7.78;;;3.33;;
50429;SDS011;36359;41.556;-8.418;2022-09-03T03:11:20;8.85;;;3.85;;
50429;SDS011;36359;41.556;-8.418;2022-09-03T03:13:47;10.07;;;3.58;;
50429;SDS011;36359;41.556;-8.418;2022-09-03T03:16:14;10.52;;;3.65;;
50429;SDS011;36359;41.556;-8.418;2022-09-03T03:18:41;10.90;;;4.28;;
50429;SDS011;36359;41.556;-8.418;2022-09-03T03:21:11;6.28;;;3.60;;
50429;SDS011;36359;41.556;-8.418;2022-09-03T03:23:39;9.15;;;4.15;;
50429;SDS011;36359;41.556;-8.418;2022-09-03T03:26:06;10.98;;;4.20;;
50429;SDS011;36359;41.556;-8.418;2022-09-03T03:28:34;8.43;;;3.72;;
50429;SDS011;36359;41.556;-8.418;2022-09-03T03:31:10;11.57;;;3.80;;
50429;SDS011;36359;41.556;-8.418;2022-09-03T03:33:38;10.93;;;4.25;;
50429;SDS011;36359;41.556;-8.418;2022-09-03T03:36:08;9.35;;;4.18;;
50429;SDS011;36359;41.556;-8.418;2022-09-03T03:38:40;14.57;;;4.78;;
50429;SDS011;36359;41.556;-8.418;2022-09-03T03:43:37;10.00;;;4.72;;
50429;SDS011;36359;41.556;-8.418;2022-09-03T03:46:03;6.03;;;2.92;;
50429;SDS011;36359;41.556;-8.418;2022-09-03T03:48:30;9.82;;;4.15;;
50429;SDS011;36359;41.556;-8.418;2022-09-03T03:51:00;9.32;;;3.95;;
50429;SDS011;36359;41.556;-8.418;2022-09-03T03:53:28;12.57;;;4.80;;
50429;SDS011;36359;41.556;-8.418;2022-09-03T03:55:58;6.45;;;3.65;;
50429;SDS011;36359;41.556;-8.418;2022-09-03T03:58:27;9.85;;;5.10;;
50429;SDS011;36359;41.556;-8.418;2022-09-03T04:00:53;10.20;;;3.40;;
50429;SDS011;36359;41.556;-8.418;2022-09-03T04:03:19;12.77;;;4.13;;
50429;SDS011;36359;41.556;-8.418;2022-09-03T04:05:55;10.25;;;3.35;;
50429;SDS011;36359;41.556;-8.418;2022-09-03T04:08:24;7.10;;;3.42;;
50429;SDS011;36359;41.556;-8.418;2022-09-03T04:10:50;7.15;;;3.25;;
50429;SDS011;36359;41.556;-8.418;2022-09-03T04:13:16;8.23;;;3.25;;
50429;SDS011;36359;41.556;-8.418;2022-09-03T04:15:42;6.63;;;3.45;;
50429;SDS011;36359;41.556;-8.418;2022-09-03T04:18:08;10.10;;;4.03;;
50429;SDS011;36359;41.556;-8.418;2022-09-03T04:20:35;7.78;;;3.75;;
50429;SDS011;36359;41.556;-8.418;2022-09-03T04:23:06;8.93;;;3.63;;
50429;SDS011;36359;41.556;-8.418;2022-09-03T04:25:31;7.13;;;3.28;;
50429;SDS011;36359;41.556;-8.418;2022-09-03T04:27:57;8.68;;;3.50;;
50429;SDS011;36359;41.556;-8.418;2022-09-03T04:30:23;5.90;;;2.70;;
50429;SDS011;36359;41.556;-8.418;2022-09-03T04:32:49;7.55;;;3.20;;
50429;SDS011;36359;41.556;-8.418;2022-09-03T04:35:18;8.63;;;3.72;;
50429;SDS011;36359;41.556;-8.418;2022-09-03T04:37:49;5.93;;;2.63;;
50429;SDS011;36359;41.556;-8.418;2022-09-03T04:40:15;10.63;;;3.78;;
50429;SDS011;36359;41.556;-8.418;2022-09-03T04:42:42;8.07;;;3.53;;
50429;SDS011;36359;41.556;-8.418;2022-09-03T04:45:08;6.22;;;3.25;;
50429;SDS011;36359;41.556;-8.418;2022-09-03T04:47:36;8.27;;;3.55;;
50429;SDS011;36359;41.556;-8.418;2022-09-03T04:50:05;10.60;;;4.53;;
50429;SDS011;36359;41.556;-8.418;2022-09-03T04:52:31;9.27;;;4.70;;
50429;SDS011;36359;41.556;-8.418;2022-09-03T04:55:02;8.13;;;4.18;;
50429;SDS011;36359;41.556;-8.418;2022-09-03T04:57:29;11.57;;;3.97;;
50429;SDS011;36359;41.556;-8.418;2022-09-03T04:59:58;5.63;;;3.20;;
50429;SDS011;36359;41.556;-8.418;2022-09-03T05:02:24;10.32;;;4.00;;
50429;SDS011;36359;41.556;-8.418;2022-09-03T05:04:50;8.02;;;3.58;;
50429;SDS011;36359;41.556;-8.418;2022-09-03T05:07:17;8.70;;;4.30;;
50429;SDS011;36359;41.556;-8.418;2022-09-03T05:09:45;9.23;;;3.85;;
50429;SDS011;36359;41.556;-8.418;2022-09-03T05:12:10;9.82;;;4.00;;
50429;SDS011;36359;41.556;-8.418;2022-09-03T05:14:37;10.52;;;4.10;;
50429;SDS011;36359;41.556;-8.418;2022-09-03T05:17:03;7.55;;;3.90;;
50429;SDS011;36359;41.556;-8.418;2022-09-03T05:19:29;8.77;;;4.35;;
50429;SDS011;36359;41.556;-8.418;2022-09-03T05:21:55;8.85;;;3.65;;
50429;SDS011;36359;41.556;-8.418;2022-09-03T05:24:21;8.02;;;3.72;;
50429;SDS011;36359;41.556;-8.418;2022-09-03T05:26:47;10.88;;;4.32;;
50429;SDS011;36359;41.556;-8.418;2022-09-03T05:29:13;9.60;;;4.38;;
50429;SDS011;36359;41.556;-8.418;2022-09-03T05:31:40;7.13;;;3.13;;
50429;SDS011;36359;41.556;-8.418;2022-09-03T05:34:06;8.27;;;3.83;;
50429;SDS011;36359;41.556;-8.418;2022-09-03T05:36:33;7.43;;;2.97;;
50429;SDS011;36359;41.556;-8.418;2022-09-03T05:39:01;7.03;;;3.25;;
50429;SDS011;36359;41.556;-8.418;2022-09-03T05:41:28;7.63;;;2.92;;
50429;SDS011;36359;41.556;-8.418;2022-09-03T05:43:56;7.78;;;3.40;;
50429;SDS011;36359;41.556;-8.418;2022-09-03T05:46:26;8.45;;;4.00;;
50429;SDS011;36359;41.556;-8.418;2022-09-03T05:48:59;5.28;;;3.10;;
50429;SDS011;36359;41.556;-8.418;2022-09-03T05:51:32;7.10;;;3.47;;
50429;SDS011;36359;41.556;-8.418;2022-09-03T05:53:59;9.95;;;3.75;;
50429;SDS011;36359;41.556;-8.418;2022-09-03T05:56:26;8.93;;;3.58;;
50429;SDS011;36359;41.556;-8.418;2022-09-03T05:58:54;9.00;;;3.65;;
50429;SDS011;36359;41.556;-8.418;2022-09-03T06:01:23;9.18;;;4.20;;
50429;SDS011;36359;41.556;-8.418;2022-09-03T06:06:22;10.45;;;5.43;;
50429;SDS011;36359;41.556;-8.418;2022-09-03T06:08:50;12.43;;;6.43;;
50429;SDS011;36359;41.556;-8.418;2022-09-03T06:11:20;6.55;;;4.38;;
50429;SDS011;36359;41.556;-8.418;2022-09-03T06:13:47;12.70;;;3.95;;
50429;SDS011;36359;41.556;-8.418;2022-09-03T06:16:13;5.93;;;3.88;;
50429;SDS011;36359;41.556;-8.418;2022-09-03T06:18:39;9.48;;;6.30;;
50429;SDS011;36359;41.556;-8.418;2022-09-03T06:21:06;9.82;;;5.53;;
50429;SDS011;36359;41.556;-8.418;2022-09-03T06:23:32;8.98;;;3.83;;
50429;SDS011;36359;41.556;-8.418;2022-09-03T06:26:09;11.20;;;4.82;;
50429;SDS011;36359;41.556;-8.418;2022-09-03T06:28:37;13.02;;;6.03;;
50429;SDS011;36359;41.556;-8.418;2022-09-03T06:31:06;15.13;;;6.15;;
50429;SDS011;36359;41.556;-8.418;2022-09-03T06:33:34;14.73;;;6.80;;
50429;SDS011;36359;41.556;-8.418;2022-09-03T06:36:01;13.82;;;6.28;;
50429;SDS011;36359;41.556;-8.418;2022-09-03T06:38:30;17.27;;;8.85;;
50429;SDS011;36359;41.556;-8.418;2022-09-03T06:40:58;18.42;;;11.10;;
50429;SDS011;36359;41.556;-8.418;2022-09-03T06:43:26;12.38;;;8.05;;
50429;SDS011;36359;41.556;-8.418;2022-09-03T06:45:54;19.27;;;10.95;;
50429;SDS011;36359;41.556;-8.418;2022-09-03T06:48:21;11.68;;;7.53;;
50429;SDS011;36359;41.556;-8.418;2022-09-03T06:50:57;15.68;;;8.23;;
50429;SDS011;36359;41.556;-8.418;2022-09-03T06:53:32;11.77;;;6.32;;
50429;SDS011;36359;41.556;-8.418;2022-09-03T06:55:59;11.32;;;4.93;;
50429;SDS011;36359;41.556;-8.418;2022-09-03T06:58:30;7.63;;;4.68;;
50429;SDS011;36359;41.556;-8.418;2022-09-03T07:01:05;9.13;;;5.05;;
50429;SDS011;36359;41.556;-8.418;2022-09-03T07:03:36;12.85;;;6.03;;
50429;SDS011;36359;41.556;-8.418;2022-09-03T07:06:11;11.35;;;5.80;;
50429;SDS011;36359;41.556;-8.418;2022-09-03T07:08:39;11.32;;;5.65;;
50429;SDS011;36359;41.556;-8.418;2022-09-03T07:11:08;12.10;;;5.28;;
50429;SDS011;36359;41.556;-8.418;2022-09-03T07:13:45;13.95;;;5.93;;
50429;SDS011;36359;41.556;-8.418;2022-09-03T07:16:13;10.13;;;5.50;;
50429;SDS011;36359;41.556;-8.418;2022-09-03T07:18:41;13.80;;;5.72;;
50429;SDS011;36359;41.556;-8.418;2022-09-03T07:24:05;9.43;;;5.00;;
50429;SDS011;36359;41.556;-8.418;2022-09-03T07:26:33;14.05;;;6.50;;
50429;SDS011;36359;41.556;-8.418;2022-09-03T07:29:01;5.43;;;3.83;;
50429;SDS011;36359;41.556;-8.418;2022-09-03T07:31:29;11.05;;;5.35;;
50429;SDS011;36359;41.556;-8.418;2022-09-03T07:33:57;9.40;;;4.60;;
50429;SDS011;36359;41.556;-8.418;2022-09-03T07:36:24;6.50;;;4.10;;
50429;SDS011;36359;41.556;-8.418;2022-09-03T07:38:53;9.48;;;4.50;;
50429;SDS011;36359;41.556;-8.418;2022-09-03T07:41:21;12.98;;;6.18;;
50429;SDS011;36359;41.556;-8.418;2022-09-03T07:43:47;12.05;;;5.85;;
50429;SDS011;36359;41.556;-8.418;2022-09-03T07:46:17;13.00;;;5.82;;
50429;SDS011;36359;41.556;-8.418;2022-09-03T07:48:47;14.93;;;6.05;;
50429;SDS011;36359;41.556;-8.418;2022-09-03T07:51:15;14.95;;;6.22;;
50429;SDS011;36359;41.556;-8.418;2022-09-03T07:53:42;13.85;;;6.72;;
50429;SDS011;36359;41.556;-8.418;2022-09-03T07:56:09;15.27;;;6.05;;
50429;SDS011;36359;41.556;-8.418;2022-09-03T07:58:35;13.50;;;6.30;;
50429;SDS011;36359;41.556;-8.418;2022-09-03T08:01:06;15.65;;;6.50;;
50429;SDS011;36359;41.556;-8.418;2022-09-03T08:03:42;16.73;;;6.43;;
50429;SDS011;36359;41.556;-8.418;2022-09-03T08:06:10;13.73;;;5.93;;
50429;SDS011;36359;41.556;-8.418;2022-09-03T08:08:38;19.98;;;6.72;;
50429;SDS011;36359;41.556;-8.418;2022-09-03T08:11:05;18.02;;;6.55;;
50429;SDS011;36359;41.556;-8.418;2022-09-03T08:16:06;21.35;;;7.15;;
50429;SDS011;36359;41.556;-8.418;2022-09-03T08:18:34;16.30;;;6.07;;
50429;SDS011;36359;41.556;-8.418;2022-09-03T08:21:10;24.27;;;7.50;;
50429;SDS011;36359;41.556;-8.418;2022-09-03T08:23:48;15.77;;;6.35;;
50429;SDS011;36359;41.556;-8.418;2022-09-03T08:26:16;15.90;;;6.60;;
50429;SDS011;36359;41.556;-8.418;2022-09-03T08:28:43;15.38;;;6.05;;
50429;SDS011;36359;41.556;-8.418;2022-09-03T08:31:11;16.10;;;5.38;;
50429;SDS011;36359;41.556;-8.418;2022-09-03T08:33:42;15.65;;;6.20;;
50429;SDS011;36359;41.556;-8.418;2022-09-03T08:36:12;15.43;;;6.97;;
50429;SDS011;36359;41.556;-8.418;2022-09-03T08:38:42;18.17;;;7.15;;
50429;SDS011;36359;41.556;-8.418;2022-09-03T08:41:18;15.23;;;6.30;;
50429;SDS011;36359;41.556;-8.418;2022-09-03T08:49:33;16.95;;;7.15;;
50429;SDS011;36359;41.556;-8.418;2022-09-03T08:52:10;12.65;;;4.75;;
50429;SDS011;36359;41.556;-8.418;2022-09-03T08:55:03;14.27;;;3.85;;
50429;SDS011;36359;41.556;-8.418;2022-09-03T08:57:36;8.32;;;4.13;;
50429;SDS011;36359;41.556;-8.418;2022-09-03T09:00:14;12.18;;;5.95;;
50429;SDS011;36359;41.556;-8.418;2022-09-03T09:08:27;20.33;;;6.38;;
50429;SDS011;36359;41.556;-8.418;2022-09-03T09:13:40;11.63;;;5.35;;
50429;SDS011;36359;41.556;-8.418;2022-09-03T09:16:30;7.18;;;4.20;;
50429;SDS011;36359;41.556;-8.418;2022-09-03T09:22:09;19.80;;;6.68;;
50429;SDS011;36359;41.556;-8.418;2022-09-03T09:24:45;10.35;;;4.78;;
50429;SDS011;36359;41.556;-8.418;2022-09-03T09:27:15;14.20;;;5.75;;
50429;SDS011;36359;41.556;-8.418;2022-09-03T09:29:42;18.58;;;7.30;;
50429;SDS011;36359;41.556;-8.418;2022-09-03T09:34:39;13.57;;;4.95;;
50429;SDS011;36359;41.556;-8.418;2022-09-03T09:37:09;10.98;;;4.78;;
50429;SDS011;36359;41.556;-8.418;2022-09-03T09:39:38;12.20;;;4.22;;
50429;SDS011;36359;41.556;-8.418;2022-09-03T09:42:05;6.18;;;3.45;;
50429;SDS011;36359;41.556;-8.418;2022-09-03T09:44:37;9.45;;;3.42;;
50429;SDS011;36359;41.556;-8.418;2022-09-03T09:47:05;6.10;;;4.05;;
50429;SDS011;36359;41.556;-8.418;2022-09-03T09:49:53;10.35;;;3.90;;
50429;SDS011;36359;41.556;-8.418;2022-09-03T09:54:50;12.10;;;3.67;;
50429;SDS011;36359;41.556;-8.418;2022-09-03T09:57:24;7.90;;;3.25;;
50429;SDS011;36359;41.556;-8.418;2022-09-03T10:00:07;10.13;;;3.65;;
50429;SDS011;36359;41.556;-8.418;2022-09-03T10:02:37;8.88;;;3.65;;
50429;SDS011;36359;41.556;-8.418;2022-09-03T10:05:13;9.50;;;3.88;;
50429;SDS011;36359;41.556;-8.418;2022-09-03T10:07:59;10.32;;;4.20;;
50429;SDS011;36359;41.556;-8.418;2022-09-03T10:10:28;5.80;;;3.23;;
50429;SDS011;36359;41.556;-8.418;2022-09-03T10:13:12;8.32;;;3.42;;
50429;SDS011;36359;41.556;-8.418;2022-09-03T10:15:47;10.07;;;3.45;;
50429;SDS011;36359;41.556;-8.418;2022-09-03T10:18:41;12.00;;;3.20;;
50429;SDS011;36359;41.556;-8.418;2022-09-03T10:26:23;7.45;;;3.05;;
50429;SDS011;36359;41.556;-8.418;2022-09-03T10:28:56;9.23;;;2.55;;
50429;SDS011;36359;41.556;-8.418;2022-09-03T10:37:17;7.70;;;2.92;;
50429;SDS011;36359;41.556;-8.418;2022-09-03T10:50:52;9.73;;;2.17;;
50429;SDS011;36359;41.556;-8.418;2022-09-03T10:56:11;8.55;;;3.22;;
50429;SDS011;36359;41.556;-8.418;2022-09-03T10:58:57;8.27;;;2.70;;
50429;SDS011;36359;41.556;-8.418;2022-09-03T11:04:52;6.63;;;2.40;;
50429;SDS011;36359;41.556;-8.418;2022-09-03T11:07:27;6.25;;;2.45;;
50429;SDS011;36359;41.556;-8.418;2022-09-03T11:15:35;8.93;;;2.28;;
50429;SDS011;36359;41.556;-8.418;2022-09-03T11:20:59;6.30;;;1.60;;
50429;SDS011;36359;41.556;-8.418;2022-09-03T11:23:30;6.72;;;2.13;;
50429;SDS011;36359;41.556;-8.418;2022-09-03T11:26:07;6.50;;;2.50;;
50429;SDS011;36359;41.556;-8.418;2022-09-03T11:34:07;4.70;;;1.50;;
50429;SDS011;36359;41.556;-8.418;2022-09-03T11:36:40;4.18;;;1.38;;
50429;SDS011;36359;41.556;-8.418;2022-09-03T11:39:32;4.35;;;1.70;;
50429;SDS011;36359;41.556;-8.418;2022-09-03T11:42:02;3.97;;;1.30;;
50429;SDS011;36359;41.556;-8.418;2022-09-03T11:44:36;5.28;;;1.67;;
50429;SDS011;36359;41.556;-8.418;2022-09-03T11:47:15;6.95;;;2.28;;
50429;SDS011;36359;41.556;-8.418;2022-09-03T11:49:50;7.63;;;1.55;;
50429;SDS011;36359;41.556;-8.418;2022-09-03T11:52:27;7.68;;;1.67;;
50429;SDS011;36359;41.556;-8.418;2022-09-03T11:54:56;7.15;;;1.83;;
50429;SDS011;36359;41.556;-8.418;2022-09-03T11:57:29;5.88;;;1.63;;
50429;SDS011;36359;41.556;-8.418;2022-09-03T12:02:55;6.05;;;1.42;;
50429;SDS011;36359;41.556;-8.418;2022-09-03T12:08:14;5.32;;;1.50;;
50429;SDS011;36359;41.556;-8.418;2022-09-03T12:13:40;7.00;;;1.48;;
50429;SDS011;36359;41.556;-8.418;2022-09-03T12:18:59;4.22;;;1.70;;
50429;SDS011;36359;41.556;-8.418;2022-09-03T12:21:36;8.90;;;1.50;;
50429;SDS011;36359;41.556;-8.418;2022-09-03T12:24:02;3.25;;;1.67;;
50429;SDS011;36359;41.556;-8.418;2022-09-03T12:26:28;6.10;;;2.00;;
50429;SDS011;36359;41.556;-8.418;2022-09-03T12:28:55;3.67;;;1.67;;
50429;SDS011;36359;41.556;-8.418;2022-09-03T12:31:42;4.78;;;1.80;;
50429;SDS011;36359;41.556;-8.418;2022-09-03T12:34:11;6.82;;;1.77;;
50429;SDS011;36359;41.556;-8.418;2022-09-03T12:39:08;7.95;;;2.10;;
50429;SDS011;36359;41.556;-8.418;2022-09-03T12:41:48;5.50;;;1.88;;
50429;SDS011;36359;41.556;-8.418;2022-09-03T12:44:31;6.10;;;1.75;;
50429;SDS011;36359;41.556;-8.418;2022-09-03T12:49:32;3.60;;;1.75;;
50429;SDS011;36359;41.556;-8.418;2022-09-03T12:55:05;5.93;;;1.63;;
50429;SDS011;36359;41.556;-8.418;2022-09-03T12:57:45;5.30;;;1.95;;
50429;SDS011;36359;41.556;-8.418;2022-09-03T13:00:33;4.35;;;1.70;;
50429;SDS011;36359;41.556;-8.418;2022-09-03T13:03:10;5.18;;;1.60;;
50429;SDS011;36359;41.556;-8.418;2022-09-03T13:05:51;4.00;;;1.42;;
50429;SDS011;36359;41.556;-8.418;2022-09-03T13:08:25;3.15;;;1.13;;
50429;SDS011;36359;41.556;-8.418;2022-09-03T13:10:56;4.18;;;1.20;;
50429;SDS011;36359;41.556;-8.418;2022-09-03T13:13:24;5.38;;;1.40;;
50429;SDS011;36359;41.556;-8.418;2022-09-03T13:21:45;3.25;;;0.75;;
50429;SDS011;36359;41.556;-8.418;2022-09-03T13:32:52;3.60;;;0.90;;
50429;SDS011;36359;41.556;-8.418;2022-09-03T13:38:07;4.03;;;0.70;;
50429;SDS011;36359;41.556;-8.418;2022-09-03T13:40:52;3.90;;;1.13;;
50429;SDS011;36359;41.556;-8.418;2022-09-03T13:46:07;2.63;;;0.70;;
50429;SDS011;36359;41.556;-8.418;2022-09-03T13:51:27;4.55;;;0.85;;
50429;SDS011;36359;41.556;-8.418;2022-09-03T14:00:07;4.57;;;1.05;;
50429;SDS011;36359;41.556;-8.418;2022-09-03T14:05:42;2.45;;;0.68;;
50429;SDS011;36359;41.556;-8.418;2022-09-03T14:14:05;5.60;;;0.90;;
50429;SDS011;36359;41.556;-8.418;2022-09-03T14:16:53;3.10;;;0.70;;
50429;SDS011;36359;41.556;-8.418;2022-09-03T14:27:30;3.25;;;1.08;;
50429;SDS011;36359;41.556;-8.418;2022-09-03T14:30:15;4.80;;;1.20;;
50429;SDS011;36359;41.556;-8.418;2022-09-03T14:35:32;2.70;;;0.70;;
50429;SDS011;36359;41.556;-8.418;2022-09-03T14:47:07;5.20;;;0.90;;
50429;SDS011;36359;41.556;-8.418;2022-09-03T14:49:58;2.45;;;0.50;;
50429;SDS011;36359;41.556;-8.418;2022-09-03T14:52:47;3.70;;;0.90;;
50429;SDS011;36359;41.556;-8.418;2022-09-03T15:00:59;5.95;;;0.70;;
50429;SDS011;36359;41.556;-8.418;2022-09-03T15:16:25;2.95;;;0.80;;
50429;SDS011;36359;41.556;-8.418;2022-09-03T15:24:35;2.60;;;1.00;;
50429;SDS011;36359;41.556;-8.418;2022-09-03T15:30:49;3.83;;;0.88;;
50429;SDS011;36359;41.556;-8.418;2022-09-03T15:36:17;4.05;;;0.82;;
50429;SDS011;36359;41.556;-8.418;2022-09-03T15:38:48;3.55;;;0.82;;
50429;SDS011;36359;41.556;-8.418;2022-09-03T15:44:00;2.15;;;0.60;;
50429;SDS011;36359;41.556;-8.418;2022-09-03T15:51:56;4.63;;;0.68;;
50429;SDS011;36359;41.556;-8.418;2022-09-03T15:54:47;4.65;;;0.55;;
50429;SDS011;36359;41.556;-8.418;2022-09-03T15:57:29;4.07;;;0.93;;
50429;SDS011;36359;41.556;-8.418;2022-09-03T16:00:09;3.80;;;0.80;;
50429;SDS011;36359;41.556;-8.418;2022-09-03T16:11:01;4.25;;;0.60;;
50429;SDS011;36359;41.556;-8.418;2022-09-03T16:16:23;3.85;;;0.68;;
50429;SDS011;36359;41.556;-8.418;2022-09-03T16:21:37;3.83;;;0.82;;
50429;SDS011;36359;41.556;-8.418;2022-09-03T16:24:22;3.60;;;0.80;;
50429;SDS011;36359;41.556;-8.418;2022-09-03T16:26:58;3.70;;;0.75;;
50429;SDS011;36359;41.556;-8.418;2022-09-03T16:30:11;2.58;;;0.65;;
50429;SDS011;36359;41.556;-8.418;2022-09-03T16:32:45;3.38;;;0.57;;
50429;SDS011;36359;41.556;-8.418;2022-09-03T16:38:29;5.22;;;1.23;;
50429;SDS011;36359;41.556;-8.418;2022-09-03T16:46:34;3.40;;;0.68;;
50429;SDS011;36359;41.556;-8.418;2022-09-03T16:51:51;3.17;;;1.02;;
50429;SDS011;36359;41.556;-8.418;2022-09-03T17:00:25;2.67;;;0.60;;
50429;SDS011;36359;41.556;-8.418;2022-09-03T17:08:09;3.67;;;0.98;;
50429;SDS011;36359;41.556;-8.418;2022-09-03T17:13:56;3.95;;;0.90;;
50429;SDS011;36359;41.556;-8.418;2022-09-03T17:24:42;4.97;;;0.80;;
50429;SDS011;36359;41.556;-8.418;2022-09-03T17:36:23;3.72;;;0.70;;
50429;SDS011;36359;41.556;-8.418;2022-09-03T17:53:04;8.07;;;1.35;;
50429;SDS011;36359;41.556;-8.418;2022-09-03T17:55:36;5.13;;;1.30;;
50429;SDS011;36359;41.556;-8.418;2022-09-03T18:04:10;5.53;;;1.20;;
50429;SDS011;36359;41.556;-8.418;2022-09-03T18:11:47;3.72;;;0.88;;
50429;SDS011;36359;41.556;-8.418;2022-09-03T18:14:19;4.35;;;1.00;;
50429;SDS011;36359;41.556;-8.418;2022-09-03T18:22:51;4.80;;;0.93;;
50429;SDS011;36359;41.556;-8.418;2022-09-03T18:25:34;4.68;;;0.90;;
50429;SDS011;36359;41.556;-8.418;2022-09-03T18:28:26;7.88;;;0.90;;
50429;SDS011;36359;41.556;-8.418;2022-09-03T18:31:34;7.45;;;1.20;;
50429;SDS011;36359;41.556;-8.418;2022-09-03T18:34:20;3.95;;;1.13;;
50429;SDS011;36359;41.556;-8.418;2022-09-03T18:37:14;6.80;;;1.45;;
50429;SDS011;36359;41.556;-8.418;2022-09-03T18:40:02;6.57;;;1.73;;
50429;SDS011;36359;41.556;-8.418;2022-09-03T18:54:58;4.00;;;1.48;;
50429;SDS011;36359;41.556;-8.418;2022-09-03T19:01:06;4.15;;;1.00;;
50429;SDS011;36359;41.556;-8.418;2022-09-03T19:07:20;4.28;;;1.00;;
50429;SDS011;36359;41.556;-8.418;2022-09-03T19:10:16;4.93;;;1.30;;
50429;SDS011;36359;41.556;-8.418;2022-09-03T19:13:50;2.88;;;0.82;;
50429;SDS011;36359;41.556;-8.418;2022-09-03T19:22:11;2.97;;;0.70;;
50429;SDS011;36359;41.556;-8.418;2022-09-03T19:25:04;2.75;;;0.98;;
50429;SDS011;36359;41.556;-8.418;2022-09-03T19:28:06;8.48;;;1.52;;
50429;SDS011;36359;41.556;-8.418;2022-09-03T19:34:12;4.38;;;1.10;;
50429;SDS011;36359;41.556;-8.418;2022-09-03T19:37:17;3.50;;;0.93;;
50429;SDS011;36359;41.556;-8.418;2022-09-03T19:43:37;6.10;;;1.58;;
50429;SDS011;36359;41.556;-8.418;2022-09-03T19:52:34;5.10;;;1.05;;
50429;SDS011;36359;41.556;-8.418;2022-09-03T19:55:34;9.50;;;1.60;;
50429;SDS011;36359;41.556;-8.418;2022-09-03T19:58:23;6.00;;;1.35;;
50429;SDS011;36359;41.556;-8.418;2022-09-03T20:01:10;4.15;;;1.15;;
50429;SDS011;36359;41.556;-8.418;2022-09-03T20:03:57;4.93;;;1.40;;
50429;SDS011;36359;41.556;-8.418;2022-09-03T20:06:44;3.88;;;1.02;;
50429;SDS011;36359;41.556;-8.418;2022-09-03T20:09:31;4.05;;;1.13;;
50429;SDS011;36359;41.556;-8.418;2022-09-03T20:12:21;6.00;;;1.42;;
50429;SDS011;36359;41.556;-8.418;2022-09-03T20:14:49;3.15;;;1.23;;
50429;SDS011;36359;41.556;-8.418;2022-09-03T20:27:57;6.20;;;1.88;;
50429;SDS011;36359;41.556;-8.418;2022-09-03T20:44:03;5.03;;;1.35;;
50429;SDS011;36359;41.556;-8.418;2022-09-03T20:52:19;3.58;;;1.08;;
50429;SDS011;36359;41.556;-8.418;2022-09-03T20:55:03;4.30;;;1.40;;
50429;SDS011;36359;41.556;-8.418;2022-09-03T21:00:21;5.88;;;2.08;;
50429;SDS011;36359;41.556;-8.418;2022-09-03T21:08:34;7.30;;;1.80;;
50429;SDS011;36359;41.556;-8.418;2022-09-03T21:11:10;3.42;;;0.80;;
50429;SDS011;36359;41.556;-8.418;2022-09-03T21:13:45;5.63;;;1.92;;
50429;SDS011;36359;41.556;-8.418;2022-09-03T21:16:35;5.97;;;1.90;;
50429;SDS011;36359;41.556;-8.418;2022-09-03T21:19:23;4.78;;;1.40;;
50429;SDS011;36359;41.556;-8.418;2022-09-03T21:24:38;3.60;;;1.35;;
50429;SDS011;36359;41.556;-8.418;2022-09-03T21:27:13;4.25;;;1.30;;
50429;SDS011;36359;41.556;-8.418;2022-09-03T21:32:40;6.72;;;1.35;;
50429;SDS011;36359;41.556;-8.418;2022-09-03T21:38:30;5.40;;;2.30;;
50429;SDS011;36359;41.556;-8.418;2022-09-03T21:41:16;5.38;;;2.75;;
50429;SDS011;36359;41.556;-8.418;2022-09-03T21:46:24;6.57;;;2.80;;
50429;SDS011;36359;41.556;-8.418;2022-09-03T21:48:58;6.40;;;2.88;;
50429;SDS011;36359;41.556;-8.418;2022-09-03T21:51:32;7.05;;;1.60;;
50429;SDS011;36359;41.556;-8.418;2022-09-03T21:54:38;6.55;;;1.85;;
50429;SDS011;36359;41.556;-8.418;2022-09-03T21:59:44;5.78;;;1.67;;
50429;SDS011;36359;41.556;-8.418;2022-09-03T22:02:24;3.53;;;1.20;;
50429;SDS011;36359;41.556;-8.418;2022-09-03T22:04:57;3.75;;;1.60;;
50429;SDS011;36359;41.556;-8.418;2022-09-03T22:07:29;6.68;;;1.67;;
50429;SDS011;36359;41.556;-8.418;2022-09-03T22:10:23;4.13;;;1.45;;
50429;SDS011;36359;41.556;-8.418;2022-09-03T22:15:44;4.13;;;1.63;;
50429;SDS011;36359;41.556;-8.418;2022-09-03T22:18:20;5.07;;;1.52;;
50429;SDS011;36359;41.556;-8.418;2022-09-03T22:23:56;5.30;;;1.48;;